Reeders, Pennsylvania
Current Conditions -  °F | °C
As of 10:26 AM on Thursday 23 Oct 2014 (Local Time) from KMPO Reporting Station
Light Rain Light Rain  
Wind Chill: 34°   Ceiling: 600
Heat Index: 42°   Visibility: 10mi
Dew Point: 39°   Wind: 16mph
Humidity: 89%   Direction: 330°NNW
Pressure: 29.8"   Gusts: 33mph
Location:  41.02°N, 75.34°W
Report Text: KMPO 231426Z AUTO 33014G29KT 10SM -RA OVC006 06/04 A2980 RMK AO2 PK WND 33029/1418 T00560039 TSNO PNO $
Loading
Personal Weather Stations






























Interactive Weather Map New forecast layout! Learn more

10-Day Weather Forecast

Advertisements
Track Severe Weather on mobile